createdAt,value
2019-05-06T00:00:59.174Z,98.29
2019-05-06T00:01:55.067Z,97.25
2019-05-06T00:02:55.041Z,97.20
2019-05-06T00:03:55.022Z,97.96
2019-05-06T00:04:55.006Z,97.96
2019-05-06T00:05:54.988Z,97.96
2019-05-06T00:06:55.085Z,98.14
2019-05-06T00:07:55.027Z,97.96
2019-05-06T00:08:54.930Z,97.91
2019-05-06T00:09:54.933Z,98.10
2019-05-06T00:10:54.906Z,97.91
2019-05-06T00:11:54.894Z,97.53
2019-05-06T00:12:54.856Z,97.34
2019-05-06T00:13:54.836Z,98.10
2019-05-06T00:14:54.818Z,98.01
2019-05-06T00:15:54.796Z,98.01
2019-05-06T00:16:58.359Z,97.30
2019-05-06T00:17:54.760Z,97.53
2019-05-06T00:18:54.767Z,97.34
2019-05-06T00:19:57.087Z,97.82
2019-05-06T00:20:57.502Z,97.44
2019-05-06T00:21:54.681Z,96.88
2019-05-06T00:22:54.762Z,96.88
2019-05-06T00:23:54.932Z,97.06
2019-05-06T00:24:54.788Z,96.97
2019-05-06T00:25:54.611Z,97.06
2019-05-06T00:26:57.338Z,96.88
2019-05-06T00:27:54.568Z,96.97
2019-05-06T00:28:54.550Z,97.25
2019-05-06T00:29:54.993Z,97.16
2019-05-06T00:31:02.842Z,96.97
2019-05-06T00:31:54.494Z,96.69
2019-05-06T00:32:54.482Z,96.83
2019-05-06T00:33:54.452Z,96.54
2019-05-06T00:34:54.724Z,97.20
2019-05-06T00:35:54.423Z,97.49
2019-05-06T00:36:54.616Z,97.39
2019-05-06T00:37:54.380Z,97.67
2019-05-06T00:38:54.362Z,98.05
2019-05-06T00:39:54.342Z,97.96
2019-05-06T00:40:54.419Z,97.86
2019-05-06T00:41:54.334Z,98.24
2019-05-06T00:42:54.324Z,98.24
2019-05-06T00:43:54.723Z,97.96
2019-05-06T00:44:54.248Z,98.14
2019-05-06T00:45:54.225Z,97.96
2019-05-06T00:46:54.651Z,98.14
2019-05-06T00:47:54.190Z,98.33
2019-05-06T00:48:54.411Z,98.14
2019-05-06T00:49:54.679Z,97.91
2019-05-06T00:50:54.132Z,97.96
2019-05-06T00:51:55.033Z,98.24
2019-05-06T00:52:54.091Z,98.33
2019-05-06T00:53:54.455Z,98.90
2019-05-06T00:54:54.741Z,98.71
2019-05-06T00:55:54.050Z,98.71
2019-05-06T00:56:54.227Z,98.43
2019-05-06T00:57:54.454Z,98.90
2019-05-06T00:58:54.436Z,99.19
2019-05-06T00:59:53.981Z,99.47
2019-05-06T01:00:54.044Z,98.90
2019-05-06T01:01:54.049Z,98.43
2019-05-06T01:02:54.379Z,98.62
2019-05-06T01:03:53.885Z,98.52
2019-05-06T01:04:54.297Z,99.28
2019-05-06T01:05:54.393Z,99.28
2019-05-06T01:06:54.512Z,99.19
2019-05-06T01:07:54.969Z,99.95
2019-05-06T01:08:54.396Z,99.99
2019-05-06T01:09:54.224Z,99.99
2019-05-06T01:10:54.546Z,99.76
2019-05-06T01:11:54.167Z,99.99
2019-05-06T01:12:54.447Z,99.47
2019-05-06T01:13:54.510Z,99.66
2019-05-06T01:14:54.527Z,99.99
2019-05-06T01:15:54.773Z,99.95
2019-05-06T01:16:54.771Z,99.85
2019-05-06T01:17:53.903Z,99.85
2019-05-06T01:18:54.135Z,99.38
2019-05-06T01:19:54.114Z,99.57
2019-05-06T01:20:54.180Z,99.28
2019-05-06T01:21:54.000Z,99.57
2019-05-06T01:22:54.445Z,99.28
2019-05-06T01:23:54.512Z,99.47
2019-05-06T01:24:55.708Z,99.38
2019-05-06T01:25:54.563Z,98.90
2019-05-06T01:26:53.776Z,98.52
2019-05-06T01:27:54.038Z,98.43
2019-05-06T01:28:54.648Z,99.00
2019-05-06T01:29:54.912Z,98.81
2019-05-06T01:30:53.614Z,99.38
2019-05-06T01:31:54.374Z,99.19
2019-05-06T01:32:54.373Z,99.28
2019-05-06T01:33:53.632Z,98.90
2019-05-06T01:34:53.831Z,98.81
2019-05-06T01:35:54.173Z,99.09
2019-05-06T01:36:54.566Z,99.09
2019-05-06T01:37:54.584Z,99.38
2019-05-06T01:38:53.601Z,99.99
2019-05-06T01:39:54.186Z,99.99
2019-05-06T01:40:54.671Z,99.99
2019-05-06T01:41:53.669Z,99.99
2019-05-06T01:42:54.092Z,99.99
2019-05-06T01:43:54.591Z,99.76
2019-05-06T01:44:53.831Z,99.99
2019-05-06T01:45:53.656Z,99.28
2019-05-06T01:46:54.159Z,99.28
2019-05-06T01:47:54.401Z,99.28
2019-05-06T01:48:53.582Z,99.57
2019-05-06T01:49:53.747Z,99.00
2019-05-06T01:50:54.028Z,99.57
2019-05-06T01:51:54.579Z,99.38
2019-05-06T01:52:54.056Z,99.28
2019-05-06T01:53:54.454Z,99.38
2019-05-06T01:54:54.185Z,99.19
2019-05-06T01:55:54.579Z,99.09
2019-05-06T01:56:53.795Z,98.90
2019-05-06T01:57:54.555Z,98.52
2019-05-06T01:58:53.649Z,98.71
2019-05-06T01:59:54.008Z,98.62
2019-05-06T02:00:54.434Z,98.33
2019-05-06T02:01:59.861Z,98.90
2019-05-06T02:02:54.588Z,98.90
2019-05-06T02:03:53.790Z,99.47
2019-05-06T02:04:54.054Z,98.33
2019-05-06T02:05:53.929Z,98.05
2019-05-06T02:06:54.552Z,98.33
2019-05-06T02:07:54.888Z,97.86
2019-05-06T02:08:54.023Z,97.30
2019-05-06T02:09:54.261Z,97.01
2019-05-06T02:10:54.506Z,97.01
2019-05-06T02:11:53.652Z,97.01
2019-05-06T02:12:54.108Z,97.01
2019-05-06T02:13:53.758Z,97.11
2019-05-06T02:14:54.335Z,96.73
2019-05-06T02:15:54.638Z,97.01
2019-05-06T02:16:54.547Z,97.39
2019-05-06T02:17:54.981Z,97.49
2019-05-06T02:18:54.030Z,97.39
2019-05-06T02:19:54.570Z,96.73
2019-05-06T02:20:53.796Z,96.83
2019-05-06T02:21:54.265Z,97.01
2019-05-06T02:22:53.871Z,97.01
2019-05-06T02:23:53.519Z,97.67
2019-05-06T02:24:53.590Z,98.05
2019-05-06T02:25:54.013Z,98.43
2019-05-06T02:26:53.714Z,99.28
2019-05-06T02:27:54.135Z,99.28
2019-05-06T02:28:54.046Z,99.76
2019-05-06T02:29:54.186Z,99.66
2019-05-06T02:30:54.674Z,99.99
2019-05-06T02:31:54.617Z,99.99
2019-05-06T02:32:55.370Z,99.99
2019-05-06T02:33:55.461Z,99.66
2019-05-06T02:34:54.626Z,99.47
2019-05-06T02:35:54.894Z,99.85
2019-05-06T02:36:54.948Z,99.76
2019-05-06T02:37:54.764Z,99.99
2019-05-06T02:38:55.472Z,99.99
2019-05-06T02:39:53.320Z,99.99
2019-05-06T02:40:53.520Z,99.99
2019-05-06T02:41:54.609Z,99.99
2019-05-06T02:42:54.702Z,99.99
2019-05-06T02:43:54.127Z,99.99
2019-05-06T02:44:54.119Z,99.99
2019-05-06T02:45:53.064Z,99.99
2019-05-06T02:46:53.381Z,99.99
2019-05-06T02:47:53.809Z,99.99
2019-05-06T02:48:54.352Z,99.76
2019-05-06T02:49:53.489Z,99.85
2019-05-06T02:50:53.745Z,99.95
2019-05-06T02:51:53.559Z,99.38
2019-05-06T02:52:53.775Z,99.28
2019-05-06T02:53:53.886Z,99.28
2019-05-06T02:54:53.653Z,99.28
2019-05-06T02:55:53.172Z,99.38
2019-05-06T02:56:53.146Z,99.66
2019-05-06T02:57:53.681Z,98.81
2019-05-06T02:58:53.520Z,99.09
2019-05-06T02:59:54.842Z,99.38
2019-05-06T03:00:53.865Z,99.19
2019-05-06T03:01:53.857Z,99.38
2019-05-06T03:02:54.205Z,99.47
2019-05-06T03:03:53.700Z,99.28
2019-05-06T03:04:52.863Z,99.38
2019-05-06T03:05:53.244Z,99.28
2019-05-06T03:06:53.285Z,99.19
2019-05-06T03:07:57.191Z,99.19
2019-05-06T03:08:54.290Z,99.09
2019-05-06T03:09:53.145Z,99.00
2019-05-06T03:10:53.333Z,99.15
2019-05-06T03:11:54.102Z,99.19
2019-05-06T03:12:53.702Z,99.57
2019-05-06T03:13:53.739Z,99.28
2019-05-06T03:14:53.357Z,99.38
2019-05-06T03:15:53.780Z,99.28
2019-05-06T03:16:53.871Z,99.38
2019-05-06T03:17:51.308Z,99.28
2019-05-06T03:18:53.190Z,98.90
2019-05-06T03:19:52.704Z,99.28
2019-05-06T03:20:53.283Z,99.76
2019-05-06T03:21:54.084Z,99.99
2019-05-06T03:22:54.078Z,99.99
2019-05-06T03:23:53.980Z,99.76
2019-05-06T03:24:54.162Z,99.95
2019-05-06T03:25:53.262Z,99.99
2019-05-06T03:26:56.204Z,99.99
2019-05-06T03:27:53.195Z,99.99
2019-05-06T03:28:53.572Z,99.99
2019-05-06T03:29:53.647Z,99.99
2019-05-06T03:30:55.840Z,99.99
2019-05-06T03:31:56.400Z,99.99
2019-05-06T03:33:27.553Z,99.99
2019-05-06T03:34:16.261Z,99.99
2019-05-06T03:35:07.863Z,99.99
2019-05-06T03:36:06.357Z,99.99
2019-05-06T03:36:55.582Z,99.99
2019-05-06T03:37:53.396Z,99.99
2019-05-06T03:38:53.482Z,99.99
2019-05-06T03:39:52.916Z,99.99
2019-05-06T03:40:53.639Z,99.99
2019-05-06T03:41:53.466Z,99.99
2019-05-06T03:42:53.638Z,99.99
2019-05-06T03:43:54.020Z,99.99
2019-05-06T03:44:53.289Z,99.99
2019-05-06T03:45:53.510Z,99.99
2019-05-06T03:46:53.726Z,99.99
2019-05-06T03:47:50.731Z,99.99
2019-05-06T03:48:53.041Z,99.99
2019-05-06T03:49:54.425Z,99.99
2019-05-06T03:50:55.667Z,99.99
2019-05-06T03:51:56.005Z,99.99
2019-05-06T03:52:56.095Z,99.99
2019-05-06T03:53:54.019Z,99.99
2019-05-06T03:54:52.989Z,99.99
2019-05-06T03:55:50.577Z,99.99
2019-05-06T03:56:53.561Z,99.99
2019-05-06T03:57:53.687Z,99.99
2019-05-06T03:58:53.331Z,99.99
2019-05-06T03:59:52.894Z,99.99
2019-05-06T04:00:52.910Z,99.99
2019-05-06T04:01:53.306Z,99.99
2019-05-06T04:02:53.385Z,99.99
2019-05-06T04:03:55.893Z,99.99
2019-05-06T04:04:55.717Z,99.99
2019-05-06T04:05:52.513Z,99.99
2019-05-06T04:06:53.113Z,99.99
2019-05-06T04:07:52.783Z,99.99
2019-05-06T04:08:52.917Z,99.99
2019-05-06T04:09:53.193Z,99.99
2019-05-06T04:10:53.594Z,99.99
2019-05-06T04:11:50.265Z,99.99
2019-05-06T04:12:53.090Z,99.99
2019-05-06T04:13:53.202Z,99.99
2019-05-06T04:14:50.204Z,99.99
2019-05-06T04:15:50.197Z,99.99
2019-05-06T04:16:53.007Z,99.99
2019-05-06T04:17:53.486Z,99.99
2019-05-06T04:18:53.498Z,99.99
2019-05-06T04:19:53.216Z,99.99
2019-05-06T04:20:52.922Z,99.99
2019-05-06T04:21:52.845Z,99.99
2019-05-06T04:22:52.905Z,99.99
2019-05-06T04:23:53.208Z,99.99
2019-05-06T04:24:50.012Z,99.99
2019-05-06T04:25:52.548Z,99.99
2019-05-06T04:26:53.140Z,99.99
2019-05-06T04:27:49.962Z,99.99
2019-05-06T04:28:53.220Z,99.99
2019-05-06T04:29:49.917Z,99.99
2019-05-06T04:30:49.897Z,99.99
2019-05-06T04:31:49.885Z,99.99
2019-05-06T04:32:52.883Z,99.99
2019-05-06T04:34:05.195Z,99.99
2019-05-06T04:34:49.817Z,99.99
2019-05-06T04:35:49.795Z,99.99
2019-05-06T04:36:49.774Z,99.99
2019-05-06T04:37:49.761Z,99.99
2019-05-06T04:38:49.735Z,99.99
2019-05-06T04:39:52.978Z,99.99
2019-05-06T04:40:49.723Z,99.99
2019-05-06T04:41:49.675Z,99.99
2019-05-06T04:42:52.524Z,99.99
2019-05-06T04:43:49.635Z,99.99
2019-05-06T04:44:49.617Z,99.99
2019-05-06T04:45:49.600Z,99.99
2019-05-06T04:46:49.580Z,99.99
2019-05-06T04:47:49.552Z,99.99
2019-05-06T04:48:49.543Z,99.99
2019-05-06T04:49:49.516Z,99.99
2019-05-06T04:50:49.519Z,99.99
2019-05-06T04:51:49.492Z,99.99
2019-05-06T04:52:49.467Z,99.99
2019-05-06T04:53:49.445Z,99.99
2019-05-06T04:54:49.429Z,99.99
2019-05-06T04:55:49.407Z,99.99
2019-05-06T04:56:49.387Z,99.99
2019-05-06T04:57:49.363Z,99.99
2019-05-06T04:58:49.343Z,99.99
2019-05-06T04:59:49.321Z,99.99
2019-05-06T05:00:49.306Z,99.99
2019-05-06T05:01:49.287Z,99.99
2019-05-06T05:02:49.268Z,99.99
2019-05-06T05:03:49.251Z,99.80
2019-05-06T05:04:49.226Z,99.90
2019-05-06T05:05:49.209Z,99.24
2019-05-06T05:06:49.188Z,98.96
2019-05-06T05:07:49.173Z,98.67
2019-05-06T05:08:49.155Z,98.77
2019-05-06T05:09:49.136Z,98.67
2019-05-06T05:10:49.109Z,98.48
2019-05-06T05:11:49.093Z,98.48
2019-05-06T05:12:49.073Z,98.86
2019-05-06T05:13:52.954Z,98.10
2019-05-06T05:14:49.036Z,98.20
2019-05-06T05:16:43.884Z,98.39
2019-05-06T05:17:43.850Z,98.20
2019-05-06T05:19:38.725Z,98.10
2019-05-06T05:20:44.121Z,97.72
2019-05-06T05:22:34.033Z,97.53
2019-05-06T05:23:33.995Z,97.06
2019-05-06T05:25:28.804Z,97.25
2019-05-06T05:26:28.749Z,97.34
2019-05-06T05:28:24.591Z,97.82
2019-05-06T05:29:24.553Z,97.53
2019-05-06T05:31:19.920Z,97.63
2019-05-06T05:32:19.874Z,97.34
2019-05-06T05:34:14.722Z,97.53
2019-05-06T05:35:14.693Z,97.82
2019-05-06T05:37:09.557Z,97.25
2019-05-06T05:38:09.499Z,96.78
2019-05-06T05:40:05.354Z,97.34
2019-05-06T05:41:05.327Z,98.01
2019-05-06T05:43:00.178Z,98.29
2019-05-06T05:44:02.283Z,97.91
2019-05-06T05:45:54.990Z,98.01
2019-05-06T05:46:54.982Z,97.63
2019-05-06T05:48:51.991Z,97.25
2019-05-06T05:49:52.441Z,97.44
2019-05-06T05:51:46.242Z,96.78
2019-05-06T05:52:46.214Z,97.25
2019-05-06T05:54:42.348Z,96.88
2019-05-06T05:55:42.367Z,96.97
2019-05-06T05:57:35.895Z,96.69
2019-05-06T05:58:35.840Z,96.88
2019-05-06T06:00:32.400Z,95.83
2019-05-06T06:01:32.615Z,95.07
2019-05-06T06:03:27.520Z,95.26
2019-05-06T06:04:27.481Z,95.26
2019-05-06T06:06:23.325Z,94.27
2019-05-06T06:07:23.287Z,93.56
2019-05-06T06:09:18.132Z,93.42
2019-05-06T06:10:18.127Z,92.80
2019-05-06T06:12:13.931Z,92.14
2019-05-06T06:13:13.889Z,92.43
2019-05-06T06:15:09.244Z,93.18
2019-05-06T06:16:09.206Z,92.90
2019-05-06T06:18:04.063Z,92.80
2019-05-06T06:19:04.034Z,92.24
2019-05-06T06:20:58.902Z,92.10
2019-05-06T06:21:58.871Z,90.86
2019-05-06T06:22:58.855Z,90.58
2019-05-06T06:23:58.833Z,90.96
2019-05-06T06:24:58.813Z,90.48
2019-05-06T06:25:58.806Z,89.54
2019-05-06T06:26:58.770Z,89.35
2019-05-06T06:27:58.754Z,89.54
2019-05-06T06:28:58.742Z,89.44
2019-05-06T06:29:58.724Z,89.63
2019-05-06T06:30:58.714Z,89.44
2019-05-06T06:31:58.684Z,89.54
2019-05-06T06:32:58.701Z,89.92
2019-05-06T06:33:58.647Z,90.67
2019-05-06T06:35:10.104Z,89.82
2019-05-06T06:35:58.611Z,89.92
2019-05-06T06:36:58.593Z,89.63
2019-05-06T06:37:58.576Z,90.20
2019-05-06T06:38:58.552Z,90.67
2019-05-06T06:39:58.530Z,90.11
2019-05-06T06:40:58.522Z,89.73
2019-05-06T06:41:58.503Z,89.92
2019-05-06T06:42:58.481Z,89.06
2019-05-06T06:43:58.477Z,88.02
2019-05-06T06:44:58.443Z,88.21
2019-05-06T06:45:58.432Z,87.55
2019-05-06T06:46:58.406Z,86.98
2019-05-06T06:47:58.390Z,86.32
2019-05-06T06:48:58.555Z,86.22
2019-05-06T06:49:58.351Z,86.36
2019-05-06T06:50:58.336Z,86.46
2019-05-06T06:51:58.317Z,86.36
2019-05-06T06:52:58.296Z,86.27
2019-05-06T06:53:58.274Z,85.80
2019-05-06T06:54:58.258Z,84.75
2019-05-06T06:55:58.242Z,84.66
2019-05-06T06:57:08.486Z,85.13
2019-05-06T06:57:58.207Z,85.38
2019-05-06T06:58:58.189Z,84.90
2019-05-06T06:59:58.171Z,84.90
2019-05-06T07:00:58.154Z,85.38
2019-05-06T07:01:58.133Z,85.28
2019-05-06T07:02:58.113Z,84.61
2019-05-06T07:03:58.101Z,84.52
2019-05-06T07:04:58.073Z,83.48
2019-05-06T07:05:58.064Z,83.62
2019-05-06T07:06:58.038Z,83.14
2019-05-06T07:07:58.026Z,83.39
2019-05-06T07:08:58.006Z,83.62
2019-05-06T07:09:58.968Z,83.81
2019-05-06T07:10:57.972Z,84.47
2019-05-06T07:11:57.957Z,84.56
2019-05-06T07:12:57.978Z,84.75
2019-05-06T07:13:58.078Z,84.66
2019-05-06T07:14:57.900Z,83.62
2019-05-06T07:15:57.881Z,83.14
2019-05-06T07:16:57.867Z,83.05
2019-05-06T07:17:57.849Z,82.57
2019-05-06T07:18:57.826Z,83.05
2019-05-06T07:19:57.810Z,83.33
2019-05-06T07:20:57.788Z,83.05
2019-05-06T07:21:57.775Z,83.05
2019-05-06T07:22:57.754Z,82.76
2019-05-06T07:23:57.739Z,81.53
2019-05-06T07:24:57.710Z,81.44
2019-05-06T07:25:57.697Z,80.49
2019-05-06T07:26:57.681Z,80.87
2019-05-06T07:27:57.669Z,80.87
2019-05-06T07:28:57.639Z,80.96
2019-05-06T07:29:57.628Z,80.77
2019-05-06T07:31:13.071Z,80.68
2019-05-06T07:31:57.596Z,80.68
2019-05-06T07:33:00.439Z,80.68
2019-05-06T07:33:57.554Z,79.64
2019-05-06T07:34:57.534Z,79.64
2019-05-06T07:35:57.514Z,80.40
2019-05-06T07:36:57.515Z,80.49
2019-05-06T07:37:57.483Z,80.49
2019-05-06T07:38:57.463Z,80.30
2019-05-06T07:39:57.447Z,81.10
2019-05-06T07:40:57.427Z,79.77
2019-05-06T07:41:57.415Z,78.88
2019-05-06T07:42:57.393Z,78.73
2019-05-06T07:43:57.375Z,78.83
2019-05-06T07:44:57.361Z,78.45
2019-05-06T07:45:57.341Z,77.69
2019-05-06T07:46:57.326Z,76.74
2019-05-06T07:47:57.304Z,76.65
2019-05-06T07:48:57.286Z,76.84
2019-05-06T07:49:57.274Z,76.46
2019-05-06T07:50:57.255Z,75.89
2019-05-06T07:51:57.232Z,75.70
2019-05-06T07:52:57.215Z,76.17
2019-05-06T07:53:57.199Z,76.93
2019-05-06T07:54:57.179Z,74.37
2019-05-06T07:55:57.159Z,73.61
2019-05-06T07:56:57.147Z,73.94
2019-05-06T07:57:57.131Z,73.94
2019-05-06T07:58:57.118Z,72.61
2019-05-06T07:59:57.096Z,72.89
2019-05-06T08:00:57.078Z,72.89
2019-05-06T08:01:57.063Z,72.71
2019-05-06T08:02:57.041Z,72.80
2019-05-06T08:03:57.027Z,71.57
2019-05-06T08:04:57.007Z,71.00
2019-05-06T08:05:58.742Z,69.96
2019-05-06T08:06:56.973Z,71.09
2019-05-06T08:07:56.963Z,70.43
2019-05-06T08:08:56.941Z,71.19
2019-05-06T08:09:56.928Z,70.43
2019-05-06T08:10:56.906Z,71.00
2019-05-06T08:11:56.890Z,70.43
2019-05-06T08:12:56.894Z,69.77
2019-05-06T08:13:56.856Z,69.38
2019-05-06T08:14:56.836Z,69.48
2019-05-06T08:15:56.834Z,70.15
2019-05-06T08:16:56.800Z,69.29
2019-05-06T08:17:56.789Z,69.42
2019-05-06T08:18:56.771Z,69.61
2019-05-06T08:19:56.757Z,69.33
2019-05-06T08:20:56.790Z,69.33
2019-05-06T08:21:56.719Z,69.57
2019-05-06T08:22:56.730Z,70.37
2019-05-06T08:23:56.683Z,69.77
2019-05-06T08:24:56.673Z,70.24
2019-05-06T08:26:09.054Z,71.19
2019-05-06T08:26:56.642Z,70.72
2019-05-06T08:27:56.618Z,70.72
2019-05-06T08:28:56.622Z,70.90
2019-05-06T08:29:56.585Z,69.77
2019-05-06T08:30:56.559Z,70.43
2019-05-06T08:31:56.551Z,70.90
2019-05-06T08:32:56.535Z,70.81
2019-05-06T08:33:56.518Z,71.47
2019-05-06T08:34:56.503Z,72.33
2019-05-06T08:36:08.803Z,72.04
2019-05-06T08:36:56.466Z,71.38
2019-05-06T08:37:56.450Z,70.53
2019-05-06T08:38:56.433Z,70.43
2019-05-06T08:39:56.423Z,70.24
2019-05-06T08:40:56.420Z,70.53
2019-05-06T08:41:56.383Z,70.05
2019-05-06T08:42:56.368Z,69.48
2019-05-06T08:43:56.395Z,69.20
2019-05-06T08:44:56.361Z,69.48
2019-05-06T08:45:56.319Z,69.57
2019-05-06T08:46:56.368Z,68.95
2019-05-06T08:47:56.297Z,69.04
2019-05-06T08:48:56.271Z,69.86
2019-05-06T08:49:56.272Z,69.61
2019-05-06T08:50:56.234Z,70.24
2019-05-06T08:51:56.223Z,69.77
2019-05-06T08:52:56.200Z,70.15
2019-05-06T08:53:56.184Z,70.24
2019-05-06T08:54:56.164Z,70.62
2019-05-06T08:55:56.154Z,69.96
2019-05-06T08:56:56.132Z,70.72
2019-05-06T08:57:56.118Z,70.15
2019-05-06T08:58:56.096Z,69.67
2019-05-06T08:59:56.081Z,69.48
2019-05-06T09:00:57.600Z,69.90
2019-05-06T09:01:56.048Z,69.52
2019-05-06T09:02:56.036Z,69.23
2019-05-06T09:04:08.855Z,68.76
2019-05-06T09:04:55.997Z,69.23
2019-05-06T09:05:55.983Z,68.00
2019-05-06T09:06:55.967Z,68.19
2019-05-06T09:07:55.957Z,68.15
2019-05-06T09:08:56.964Z,68.91
2019-05-06T09:09:55.915Z,69.20
2019-05-06T09:10:55.897Z,68.82
2019-05-06T09:11:55.883Z,69.10
2019-05-06T09:12:55.869Z,68.82
2019-05-06T09:13:55.852Z,69.38
2019-05-06T09:14:55.832Z,69.20
2019-05-06T09:15:55.812Z,69.48
2019-05-06T09:16:55.811Z,69.67
2019-05-06T09:17:55.793Z,68.95
2019-05-06T09:18:55.768Z,68.95
2019-05-06T09:19:55.750Z,69.13
2019-05-06T09:20:55.733Z,69.13
2019-05-06T09:21:55.719Z,69.23
2019-05-06T09:22:55.697Z,69.61
2019-05-06T09:23:55.681Z,69.61
2019-05-06T09:24:55.668Z,68.76
2019-05-06T09:25:55.657Z,68.00
2019-05-06T09:26:55.633Z,68.85
2019-05-06T09:27:55.617Z,69.04
2019-05-06T09:28:55.599Z,67.24
2019-05-06T09:29:55.578Z,67.52
2019-05-06T09:30:55.570Z,67.14
2019-05-06T09:31:55.553Z,66.48
2019-05-06T09:32:55.532Z,66.01
2019-05-06T09:33:55.515Z,66.48
2019-05-06T09:34:55.491Z,66.58
2019-05-06T09:35:55.481Z,66.39
2019-05-06T09:36:55.465Z,66.48
2019-05-06T09:37:55.458Z,66.20
2019-05-06T09:38:55.435Z,66.52
2019-05-06T09:39:55.416Z,66.14
2019-05-06T09:40:55.400Z,65.53
2019-05-06T09:41:58.101Z,66.42
2019-05-06T09:42:55.366Z,66.04
2019-05-06T09:43:55.348Z,64.97
2019-05-06T09:44:55.340Z,64.97
2019-05-06T09:45:55.319Z,64.87
2019-05-06T09:46:55.297Z,64.97
2019-05-06T09:47:55.296Z,65.09
2019-05-06T09:48:55.270Z,65.37
2019-05-06T09:49:55.255Z,64.24
2019-05-06T09:50:55.237Z,64.14
2019-05-06T09:51:55.215Z,64.24
2019-05-06T09:52:55.203Z,63.20
2019-05-06T09:53:55.194Z,63.29
2019-05-06T09:54:55.176Z,63.01
2019-05-06T09:55:55.152Z,65.00
2019-05-06T09:56:55.142Z,64.08
2019-05-06T09:57:55.120Z,63.42
2019-05-06T09:58:55.119Z,63.04
2019-05-06T09:59:55.090Z,61.71
2019-05-06T10:00:55.073Z,61.52
2019-05-06T10:01:55.060Z,61.74
2019-05-06T10:02:55.042Z,61.26
2019-05-06T10:03:55.050Z,59.62
2019-05-06T10:04:55.011Z,59.43
2019-05-06T10:05:54.994Z,60.13
2019-05-06T10:06:59.830Z,59.14
2019-05-06T10:07:54.966Z,59.62
2019-05-06T10:08:54.962Z,59.93
2019-05-06T10:09:54.929Z,58.98
2019-05-06T10:10:59.508Z,58.89
2019-05-06T10:11:54.898Z,58.51
2019-05-06T10:12:54.888Z,57.65
2019-05-06T10:13:54.869Z,57.94
2019-05-06T10:14:54.864Z,56.92
2019-05-06T10:15:57.558Z,56.23
2019-05-06T10:16:54.836Z,55.76
2019-05-06T10:17:54.812Z,55.69
2019-05-06T10:18:54.792Z,55.76
2019-05-06T10:19:54.834Z,55.28
2019-05-06T10:20:54.757Z,55.37
2019-05-06T10:21:54.748Z,55.59
2019-05-06T10:22:54.729Z,56.35
2019-05-06T10:23:54.714Z,55.78
2019-05-06T10:24:54.695Z,54.83
2019-05-06T10:25:54.685Z,54.64
2019-05-06T10:26:54.665Z,54.38
2019-05-06T10:27:57.212Z,55.24
2019-05-06T10:28:54.639Z,54.57
2019-05-06T10:29:54.622Z,54.86
2019-05-06T10:30:54.609Z,56.76
2019-05-06T10:31:54.587Z,55.71
2019-05-06T10:32:54.579Z,55.43
2019-05-06T10:33:54.558Z,55.15
2019-05-06T10:34:54.547Z,54.22
2019-05-06T10:35:54.535Z,54.03
2019-05-06T10:36:54.520Z,52.76
2019-05-06T10:37:54.501Z,52.29
2019-05-06T10:38:54.485Z,51.43
2019-05-06T10:39:54.471Z,51.34
2019-05-06T10:41:00.806Z,53.72
2019-05-06T10:41:54.445Z,53.24
2019-05-06T10:42:54.428Z,52.84
2019-05-06T10:43:54.410Z,53.41
2019-05-06T10:44:54.402Z,53.50
2019-05-06T10:45:54.380Z,53.97
2019-05-06T10:46:54.445Z,55.21
2019-05-06T10:47:54.350Z,56.83
2019-05-06T10:48:54.340Z,56.38
2019-05-06T10:49:54.327Z,56.19
2019-05-06T10:50:54.308Z,55.43
2019-05-06T10:51:54.297Z,53.91
2019-05-06T10:52:54.285Z,54.00
2019-05-06T10:53:54.269Z,54.74
2019-05-06T10:54:54.249Z,54.26
2019-05-06T10:55:54.233Z,55.47
2019-05-06T10:56:56.968Z,56.04
2019-05-06T10:57:54.208Z,56.42
2019-05-06T10:58:54.192Z,56.23
2019-05-06T10:59:54.178Z,55.76
2019-05-06T11:00:54.165Z,56.23
2019-05-06T11:01:54.147Z,56.23
2019-05-06T11:02:54.134Z,56.42
2019-05-06T11:03:54.120Z,55.85
2019-05-06T11:04:54.104Z,55.66
2019-05-06T11:05:54.087Z,55.66
2019-05-06T11:06:54.075Z,56.61
2019-05-06T11:07:54.055Z,56.61
2019-05-06T11:08:54.041Z,57.18
2019-05-06T11:09:54.022Z,57.28
2019-05-06T11:10:54.012Z,56.32
2019-05-06T11:11:53.998Z,56.61
2019-05-06T11:12:53.981Z,56.51
2019-05-06T11:13:53.967Z,57.37
2019-05-06T11:14:55.783Z,57.65
2019-05-06T11:15:55.605Z,56.99
2019-05-06T11:16:53.921Z,56.42
2019-05-06T11:17:53.904Z,59.55
2019-05-06T11:18:53.893Z,60.03
2019-05-06T11:19:53.876Z,58.80
2019-05-06T11:20:56.228Z,57.53
2019-05-06T11:21:53.841Z,56.87
2019-05-06T11:22:53.852Z,58.86
2019-05-06T11:23:53.814Z,59.71
2019-05-06T11:24:53.797Z,60.10
2019-05-06T11:25:53.784Z,59.62
2019-05-06T11:26:54.092Z,59.52
2019-05-06T11:27:53.752Z,59.24
2019-05-06T11:28:53.736Z,57.91
2019-05-06T11:29:53.723Z,57.62
2019-05-06T11:30:53.707Z,58.10
2019-05-06T11:31:54.335Z,58.20
2019-05-06T11:32:54.826Z,58.10
2019-05-06T11:33:53.663Z,61.04
2019-05-06T11:34:53.645Z,59.52
2019-05-06T11:35:53.625Z,58.86
2019-05-06T11:36:53.615Z,58.39
2019-05-06T11:37:54.448Z,58.10
2019-05-06T11:38:53.582Z,56.96
2019-05-06T11:39:53.567Z,57.43
2019-05-06T11:40:53.563Z,57.24
2019-05-06T11:42:06.247Z,57.34
2019-05-06T11:42:53.521Z,57.62
2019-05-06T11:43:53.500Z,58.67
2019-05-06T11:44:53.490Z,58.10
2019-05-06T11:45:53.474Z,58.70
2019-05-06T11:46:53.456Z,58.41
2019-05-06T11:47:55.976Z,58.10
2019-05-06T11:48:53.424Z,58.20
2019-05-06T11:49:56.096Z,59.05
2019-05-06T11:50:53.392Z,58.86
2019-05-06T11:51:53.380Z,58.86
2019-05-06T11:52:55.998Z,59.74
2019-05-06T11:53:54.151Z,60.79
2019-05-06T11:54:53.330Z,59.74
2019-05-06T11:55:54.767Z,59.08
2019-05-06T11:56:58.211Z,57.37
2019-05-06T11:57:53.281Z,57.18
2019-05-06T11:58:53.431Z,58.32
2019-05-06T11:59:53.257Z,58.51
2019-05-06T12:00:53.239Z,57.37
2019-05-06T12:01:53.630Z,56.42
2019-05-06T12:02:53.437Z,56.42
2019-05-06T12:03:53.192Z,56.89
2019-05-06T12:04:53.173Z,56.61
2019-05-06T12:05:53.161Z,57.28
2019-05-06T12:07:09.207Z,58.22
2019-05-06T12:08:01.880Z,58.70
2019-05-06T12:08:53.114Z,56.80
2019-05-06T12:09:53.873Z,55.47
2019-05-06T12:10:53.077Z,55.28
2019-05-06T12:11:53.091Z,55.28
2019-05-06T12:12:53.385Z,54.43
2019-05-06T12:13:53.442Z,55.09
2019-05-06T12:14:53.064Z,54.80
2019-05-06T12:15:53.002Z,54.52
2019-05-06T12:16:55.123Z,54.61
2019-05-06T12:17:53.514Z,54.80
2019-05-06T12:18:53.117Z,55.09
2019-05-06T12:19:53.079Z,54.61
2019-05-06T12:20:52.925Z,53.28
2019-05-06T12:21:52.911Z,53.66
2019-05-06T12:22:53.002Z,55.09
2019-05-06T12:23:53.894Z,55.85
2019-05-06T12:24:52.866Z,55.09
2019-05-06T12:25:53.032Z,54.43
2019-05-06T12:26:52.842Z,55.09
2019-05-06T12:27:52.823Z,54.26
2019-05-06T12:28:53.322Z,54.24
2019-05-06T12:29:52.956Z,54.17
2019-05-06T12:30:52.774Z,54.17
2019-05-06T12:31:53.050Z,54.17
2019-05-06T12:32:52.751Z,54.05
2019-05-06T12:33:53.424Z,54.61
2019-05-06T12:34:52.711Z,55.09
2019-05-06T12:35:52.706Z,54.99
2019-05-06T12:36:52.870Z,55.09
2019-05-06T12:37:53.121Z,55.57
2019-05-06T12:38:52.645Z,56.61
2019-05-06T12:39:53.362Z,56.61
2019-05-06T12:40:53.098Z,56.32
2019-05-06T12:41:53.446Z,55.85
2019-05-06T12:42:53.443Z,55.85
2019-05-06T12:43:52.572Z,55.47
2019-05-06T12:44:52.924Z,54.33
2019-05-06T12:45:53.128Z,54.43
2019-05-06T12:46:53.116Z,54.80
2019-05-06T12:47:53.436Z,55.09
2019-05-06T12:48:52.498Z,54.52
2019-05-06T12:49:53.295Z,55.18
2019-05-06T12:50:52.665Z,55.18
2019-05-06T12:51:53.790Z,54.14
2019-05-06T12:52:52.827Z,54.33
2019-05-06T12:53:53.034Z,54.87
2019-05-06T12:54:54.244Z,55.73
2019-05-06T12:55:52.388Z,56.10
2019-05-06T12:56:52.368Z,56.39
2019-05-06T12:57:53.034Z,56.04
2019-05-06T12:58:52.660Z,55.28
2019-05-06T12:59:53.027Z,55.28
2019-05-06T13:00:54.264Z,55.54
2019-05-06T13:01:54.070Z,56.39
2019-05-06T13:02:53.117Z,56.20
2019-05-06T13:03:52.671Z,56.70
2019-05-06T13:04:59.681Z,58.32
2019-05-06T13:05:52.251Z,57.84
2019-05-06T13:06:52.338Z,57.56
2019-05-06T13:07:52.708Z,56.13
2019-05-06T13:09:01.083Z,55.94
2019-05-06T13:09:52.926Z,56.13
2019-05-06T13:10:52.641Z,57.37
2019-05-06T13:11:52.474Z,56.61
2019-05-06T13:12:54.097Z,56.80
2019-05-06T13:13:57.414Z,57.28